Accueil
METAR-TAF:

METAR-TAF

Aéroports :

Pattaya-Rayong, Thaïlande

latitude: 12-38N, longitude: 101-21E, altitude: 3 m

Observation

Le bulletin a été fait il y a 11 minutes, à 02:00 UTC
Vent 6 kt de sud-ouest
Température 30°C
Humidité 70%
Pression 1005 hPa
Visibilité 10 km ou plus
Quelques nuages à une hauteur de 2000 ft
Nuages épars à une hauteur de 10000 ft

METAR: VTBU 220200Z 22006KT 9999 FEW020 SCT100 30/24 Q1005 NOSIG

Heure: 09:11 (02:11 UTC)

Prévision

Le bulletin a été fait il y a 3 heures et 11 minutes, à 23:00 UTC
Prévision valable du 22 à 00 UTC au 22 à 24 UTC
Vent 8 kt de ouest/sud-ouest
Visibilité 10 km ou plus
Quelques nuages à une hauteur de 2000 ft
Nuages épars à une hauteur de 10000 ft

TAF: VTBU 212300Z 2200/2224 24008KT 9999 FEW020 SCT100

Observations et prévisions météorologiques de plus de 4000 aéroports (messages METAR et TAF).

Les stations disponibles sont représentées par des disques jaunes et rouges sur la carte.

Passer la souris dessus pour voir le nom de la station.

Cliquer dessus pour voir les observations et prévisions météorologiques.

Pour changer de carte: cliquez sur les boutons verts avec une croix noire pour zoomer, sur le bouton vert avec un tiret pour effectuer un zoom arrière, ou sur les flèches vertes pour les cartes adjacentes.


METAR-TAF: